Flight Track Log - Related Links

Times and Time Zones

All times are in EDT time to prevent confusion due to time zone crossing. See the AWI3704 flight status page for this flight to view local times or setup timezone preferences in your user account.

Time Position Orientation Groundspeed Altitude Reporting Facility
EDT Latitude Longitude Course Direction KTS MPH feet Rate Location/Type
Sat 12:15:57 PM 42.7256 -73.8053 220° Southwest 161 185 1,300  Level Boston Center
Sat 12:16:28 PM 42.6986 -73.8044 179° South 180 207 2,000 1,624 Climbing Boston Center
Sat 12:17:22 PM 42.6833 -73.8664 251° West 258 297 3,600 2,393 Climbing Boston Center
Sat 12:18:00 PM 42.7334 -74.1641 270° West  Level FlightAware Approximate
Sat 12:19:00 PM 42.7333 -74.2855 270° West  Level FlightAware Approximate
Sat 12:19:31 PM 42.7075 -74.0703 279° West 275 316 9,300  Level Boston Center
Sat 12:20:00 PM 42.6790 -74.3758 220° Southwest  Level FlightAware Approximate
Sat 12:20:31 PM 42.6606 -74.1539 233° Southwest 261 300 11,600  Level Boston Center
Sat 12:21:00 PM 42.6103 -74.4530 220° Southwest  Level FlightAware Approximate
Sat 12:21:31 PM 42.6028 -74.2539 232° Southwest 300 345 13,900  Level Boston Center
Sat 12:22:31 PM 42.5642 -74.3147 229° Southwest 313 360 15,900 1,050 Climbing Boston Center
Sat 12:23:31 PM 42.4933 -74.4364 232° Southwest 320 368 16,000 34 Climbing Boston Center
Sat 12:25:29 PM 42.3878 -74.6114 231° Southwest 328 377 16,000  Level New York Center
Sat 12:26:27 PM 42.3306 -74.7061 231° Southwest 334 384 16,000  Level New York Center
Sat 12:27:28 PM 42.2733 -74.8008 231° Southwest 334 384 16,000  Level New York Center
Sat 12:28:30 PM 42.2161 -74.8953 231° Southwest 334 384 16,000  Level New York Center
Sat 12:29:27 PM 42.1400 -74.9883 222° Southwest 340 391 16,000  Level New York Center
Sat 12:30:29 PM 42.0603 -75.0586 213° Southwest 340 391 16,000  Level New York Center
Sat 12:31:29 PM 41.9789 -75.1258 212° Southwest 355 409 16,000  Level New York Center
Sat 12:32:28 PM 41.9039 -75.1850 210° Southwest 355 409 16,000  Level New York Center
Sat 12:33:29 PM 41.8244 -75.2494 211° Southwest 347 399 16,000  Level New York Center
Sat 12:34:27 PM 41.7342 -75.3211 211° Southwest 347 399 16,000 -101 Level New York Center
Sat 12:35:28 PM 41.6547 -75.3850 211° Southwest 353 406 15,800 -836 Descending New York Center
Sat 12:36:29 PM 41.5772 -75.4492 212° Southwest 353 406 14,300 -1,462 Descending New York Center
Sat 12:37:27 PM 41.5106 -75.5025 211° Southwest 331 381 12,900 -1,150 Descending New York Center
Sat 12:38:29 PM 41.4286 -75.5689 211° Southwest 323 372 12,000 -443 Descending New York Center
Sat 12:39:29 PM 41.3556 -75.6244 210° Southwest 318 366 12,000  Level New York Center
Sat 12:40:27 PM 41.2783 -75.6822 209° Southwest 318 366 12,000  Level New York Center
Sat 12:41:28 PM 41.1925 -75.6897 184° South 311 358 12,000  Level New York Center
Sat 12:42:28 PM 41.1114 -75.6867 178° South 324 373 12,000  Level New York Center
Sat 12:43:28 PM 41.0239 -75.6858 180° South 324 373 12,000  Level New York Center
Sat 12:44:28 PM 40.9258 -75.6869 180° South 324 373 12,000  Level New York Center
Sat 12:45:29 PM 40.8489 -75.6869 180° South 324 373 12,000  Level New York Center
Sat 12:46:27 PM 40.7622 -75.6669 170° South 324 373 12,000  Level New York Center
Sat 12:47:28 PM 40.6731 -75.6033 152° Southeast 324 373 12,000 -148 Level New York Center
Sat 12:48:29 PM 40.5944 -75.5403 149° Southeast 331 381 11,700 -942 Descending New York Center
Sat 12:49:29 PM 40.5175 -75.4831 151° Southeast 325 374 10,100 -864 Descending New York Center
Sat 12:50:27 PM 40.4528 -75.4350 151° Southeast 307 353 10,000 -50 Descending New York Center
Sat 12:51:28 PM 40.3692 -75.3911 158° South 299 344 10,000 -700 Level New York Center
Sat 12:52:27 PM 40.2933 -75.4078 190° South 271 312 8,600 -1,462 Descending New York Center
Sat 12:53:27 PM 40.2217 -75.4275 192° South 271 312 7,100 -1,289 Descending New York Center
Sat 12:54:28 PM 40.1458 -75.4497 193° South 282 325 6,000 -550 Descending New York Center
Sat 12:55:27 PM 40.0781 -75.4722 194° South 265 305 6,000  Level New York Center
Sat 12:56:28 PM 40.0128 -75.4947 195° South 260 299 6,000  Level New York Center
Sat 12:57:27 PM 39.9558 -75.5100 192° South 223 257 6,000  Level New York Center
Sat 12:58:27 PM 39.9092 -75.5283 197° South 207 238 6,000 -98 Level New York Center
Sat 12:59:29 PM 39.8878 -75.5947 247° West 175 201 5,800 -744 Descending New York Center
Sat 01:00:28 PM 39.8769 -75.6561 257° West 187 215 4,500 -900 Descending New York Center
Sat 01:01:29 PM 39.8289 -75.6528 177° South 134 154 4,000 -151 Descending New York Center
Sat 01:02:27 PM 39.8056 -75.6161 130° Southeast 134 154 4,200  Climbing New York Center
Sat 01:03:21 PM 39.8000 -75.5500 96° East 177 204 4,000 -278 Descending Philadelphia TRACON
Sat 01:04:15 PM 39.8167 -75.5000 67° East 181 208 3,700 -778 Descending Philadelphia TRACON
Sat 01:05:09 PM 39.8333 -75.4333 72° East 181 208 2,600 -1,222 Descending Philadelphia TRACON

Login

Don't have an account? Register now (free) for customized features, flight alerts, and more!